sensor_id;sensor_type;location;lat;lon;timestamp;P1;durP1;ratioP1;P2;durP2;ratioP2
34920;SDS011;21128;50.016;20.002;2023-09-19T00:00:46;9.70;;;7.50;;
34920;SDS011;21128;50.016;20.002;2023-09-19T00:03:35;11.70;;;8.60;;
34920;SDS011;21128;50.016;20.002;2023-09-19T00:06:05;10.00;;;8.30;;
34920;SDS011;21128;50.016;20.002;2023-09-19T00:08:34;10.70;;;7.70;;
34920;SDS011;21128;50.016;20.002;2023-09-19T00:11:01;16.10;;;10.30;;
34920;SDS011;21128;50.016;20.002;2023-09-19T00:13:32;16.70;;;11.80;;
34920;SDS011;21128;50.016;20.002;2023-09-19T00:16:00;19.10;;;12.50;;
34920;SDS011;21128;50.016;20.002;2023-09-19T00:18:27;18.10;;;12.10;;
34920;SDS011;21128;50.016;20.002;2023-09-19T00:20:58;18.80;;;11.70;;
34920;SDS011;21128;50.016;20.002;2023-09-19T00:23:25;18.80;;;11.50;;
34920;SDS011;21128;50.016;20.002;2023-09-19T00:25:53;16.90;;;9.30;;
34920;SDS011;21128;50.016;20.002;2023-09-19T00:28:23;10.70;;;7.90;;
34920;SDS011;21128;50.016;20.002;2023-09-19T00:30:50;11.40;;;9.10;;
34920;SDS011;21128;50.016;20.002;2023-09-19T00:33:18;14.70;;;9.20;;
34920;SDS011;21128;50.016;20.002;2023-09-19T00:38:16;15.70;;;10.70;;
34920;SDS011;21128;50.016;20.002;2023-09-19T00:40:45;17.00;;;11.90;;
34920;SDS011;21128;50.016;20.002;2023-09-19T00:43:12;17.80;;;11.80;;
34920;SDS011;21128;50.016;20.002;2023-09-19T00:45:42;15.50;;;10.60;;
34920;SDS011;21128;50.016;20.002;2023-09-19T00:48:15;12.00;;;8.90;;
34920;SDS011;21128;50.016;20.002;2023-09-19T00:50:42;11.20;;;7.60;;
34920;SDS011;21128;50.016;20.002;2023-09-19T00:53:12;10.90;;;8.30;;
34920;SDS011;21128;50.016;20.002;2023-09-19T00:55:40;9.60;;;7.50;;
34920;SDS011;21128;50.016;20.002;2023-09-19T00:58:09;9.30;;;8.00;;
34920;SDS011;21128;50.016;20.002;2023-09-19T01:00:36;9.70;;;7.50;;
34920;SDS011;21128;50.016;20.002;2023-09-19T01:03:05;9.90;;;7.30;;
34920;SDS011;21128;50.016;20.002;2023-09-19T01:05:33;10.10;;;7.40;;
34920;SDS011;21128;50.016;20.002;2023-09-19T01:08:01;11.80;;;7.90;;
34920;SDS011;21128;50.016;20.002;2023-09-19T01:10:27;9.60;;;8.00;;
34920;SDS011;21128;50.016;20.002;2023-09-19T01:15:55;16.60;;;8.90;;
34920;SDS011;21128;50.016;20.002;2023-09-19T01:29:50;16.90;;;10.00;;
34920;SDS011;21128;50.016;20.002;2023-09-19T01:32:18;21.10;;;10.10;;
34920;SDS011;21128;50.016;20.002;2023-09-19T01:34:49;14.50;;;10.30;;
34920;SDS011;21128;50.016;20.002;2023-09-19T01:37:19;12.20;;;9.60;;
34920;SDS011;21128;50.016;20.002;2023-09-19T01:39:55;13.30;;;9.40;;
34920;SDS011;21128;50.016;20.002;2023-09-19T01:42:41;13.00;;;10.00;;
34920;SDS011;21128;50.016;20.002;2023-09-19T01:45:12;12.30;;;9.90;;
34920;SDS011;21128;50.016;20.002;2023-09-19T01:50:18;18.20;;;9.80;;
34920;SDS011;21128;50.016;20.002;2023-09-19T01:52:59;11.50;;;10.00;;
34920;SDS011;21128;50.016;20.002;2023-09-19T01:55:33;15.30;;;10.70;;
34920;SDS011;21128;50.016;20.002;2023-09-19T02:00:45;16.60;;;11.20;;
34920;SDS011;21128;50.016;20.002;2023-09-19T02:03:14;13.80;;;11.30;;
34920;SDS011;21128;50.016;20.002;2023-09-19T02:05:47;18.50;;;11.50;;
34920;SDS011;21128;50.016;20.002;2023-09-19T02:08:17;17.10;;;12.30;;
34920;SDS011;21128;50.016;20.002;2023-09-19T02:10:45;15.60;;;11.90;;
34920;SDS011;21128;50.016;20.002;2023-09-19T02:13:19;13.80;;;11.60;;
34920;SDS011;21128;50.016;20.002;2023-09-19T02:15:47;14.20;;;12.50;;
34920;SDS011;21128;50.016;20.002;2023-09-19T02:18:14;16.30;;;12.40;;
34920;SDS011;21128;50.016;20.002;2023-09-19T02:20:41;17.90;;;12.50;;
34920;SDS011;21128;50.016;20.002;2023-09-19T02:23:08;18.40;;;12.50;;
34920;SDS011;21128;50.016;20.002;2023-09-19T02:25:36;15.20;;;12.00;;
34920;SDS011;21128;50.016;20.002;2023-09-19T02:28:04;20.00;;;12.50;;
34920;SDS011;21128;50.016;20.002;2023-09-19T02:30:32;14.00;;;12.50;;
34920;SDS011;21128;50.016;20.002;2023-09-19T02:32:59;13.80;;;11.90;;
34920;SDS011;21128;50.016;20.002;2023-09-19T02:35:29;16.90;;;12.40;;
34920;SDS011;21128;50.016;20.002;2023-09-19T02:38:01;17.10;;;13.10;;
34920;SDS011;21128;50.016;20.002;2023-09-19T02:40:32;17.80;;;12.60;;
34920;SDS011;21128;50.016;20.002;2023-09-19T02:43:02;17.10;;;12.20;;
34920;SDS011;21128;50.016;20.002;2023-09-19T02:45:29;14.30;;;12.50;;
34920;SDS011;21128;50.016;20.002;2023-09-19T02:47:56;17.40;;;13.20;;
34920;SDS011;21128;50.016;20.002;2023-09-19T02:50:23;18.40;;;12.20;;
34920;SDS011;21128;50.016;20.002;2023-09-19T02:52:50;16.30;;;11.70;;
34920;SDS011;21128;50.016;20.002;2023-09-19T02:55:18;14.00;;;12.50;;
34920;SDS011;21128;50.016;20.002;2023-09-19T02:57:54;16.30;;;12.60;;
34920;SDS011;21128;50.016;20.002;2023-09-19T03:00:21;18.40;;;12.00;;
34920;SDS011;21128;50.016;20.002;2023-09-19T03:02:55;17.30;;;12.50;;
34920;SDS011;21128;50.016;20.002;2023-09-19T03:05:23;15.10;;;12.10;;
34920;SDS011;21128;50.016;20.002;2023-09-19T03:07:50;16.30;;;12.40;;
34920;SDS011;21128;50.016;20.002;2023-09-19T03:10:18;18.00;;;12.90;;
34920;SDS011;21128;50.016;20.002;2023-09-19T03:12:46;16.00;;;12.70;;
34920;SDS011;21128;50.016;20.002;2023-09-19T03:15:14;18.90;;;12.60;;
34920;SDS011;21128;50.016;20.002;2023-09-19T03:17:45;14.50;;;12.10;;
34920;SDS011;21128;50.016;20.002;2023-09-19T03:20:13;16.10;;;12.70;;
34920;SDS011;21128;50.016;20.002;2023-09-19T03:22:44;15.20;;;12.40;;
34920;SDS011;21128;50.016;20.002;2023-09-19T03:25:12;17.90;;;13.30;;
34920;SDS011;21128;50.016;20.002;2023-09-19T03:27:39;16.00;;;13.10;;
34920;SDS011;21128;50.016;20.002;2023-09-19T03:30:07;17.60;;;13.00;;
34920;SDS011;21128;50.016;20.002;2023-09-19T03:32:46;16.60;;;13.90;;
34920;SDS011;21128;50.016;20.002;2023-09-19T03:35:16;14.90;;;12.80;;
34920;SDS011;21128;50.016;20.002;2023-09-19T03:37:44;17.70;;;13.30;;
34920;SDS011;21128;50.016;20.002;2023-09-19T03:40:11;16.30;;;13.30;;
34920;SDS011;21128;50.016;20.002;2023-09-19T03:42:42;20.60;;;13.10;;
34920;SDS011;21128;50.016;20.002;2023-09-19T03:45:09;18.60;;;13.70;;
34920;SDS011;21128;50.016;20.002;2023-09-19T03:47:39;17.50;;;14.20;;
34920;SDS011;21128;50.016;20.002;2023-09-19T03:50:07;18.50;;;14.60;;
34920;SDS011;21128;50.016;20.002;2023-09-19T03:52:37;22.60;;;15.40;;
34920;SDS011;21128;50.016;20.002;2023-09-19T03:55:04;17.10;;;15.20;;
34920;SDS011;21128;50.016;20.002;2023-09-19T03:57:31;22.60;;;15.40;;
34920;SDS011;21128;50.016;20.002;2023-09-19T03:59:58;18.10;;;14.90;;
34920;SDS011;21128;50.016;20.002;2023-09-19T04:02:25;20.50;;;16.20;;
34920;SDS011;21128;50.016;20.002;2023-09-19T04:04:52;23.40;;;17.50;;
34920;SDS011;21128;50.016;20.002;2023-09-19T04:07:19;26.20;;;15.20;;
34920;SDS011;21128;50.016;20.002;2023-09-19T04:09:48;21.50;;;15.00;;
34920;SDS011;21128;50.016;20.002;2023-09-19T04:12:15;18.70;;;15.10;;
34920;SDS011;21128;50.016;20.002;2023-09-19T04:14:45;19.10;;;15.30;;
34920;SDS011;21128;50.016;20.002;2023-09-19T04:17:12;21.60;;;15.20;;
34920;SDS011;21128;50.016;20.002;2023-09-19T04:19:40;23.00;;;15.10;;
34920;SDS011;21128;50.016;20.002;2023-09-19T04:22:08;22.50;;;15.90;;
34920;SDS011;21128;50.016;20.002;2023-09-19T04:24:35;21.30;;;14.70;;
34920;SDS011;21128;50.016;20.002;2023-09-19T04:27:04;22.10;;;16.60;;
34920;SDS011;21128;50.016;20.002;2023-09-19T04:29:31;21.60;;;16.50;;
34920;SDS011;21128;50.016;20.002;2023-09-19T04:31:59;19.80;;;15.30;;
34920;SDS011;21128;50.016;20.002;2023-09-19T04:34:25;21.80;;;16.20;;
34920;SDS011;21128;50.016;20.002;2023-09-19T04:36:53;22.10;;;17.70;;
34920;SDS011;21128;50.016;20.002;2023-09-19T04:39:20;21.10;;;15.80;;
34920;SDS011;21128;50.016;20.002;2023-09-19T04:41:47;25.40;;;15.70;;
34920;SDS011;21128;50.016;20.002;2023-09-19T04:44:14;22.10;;;15.70;;
34920;SDS011;21128;50.016;20.002;2023-09-19T04:46:42;21.20;;;16.30;;
34920;SDS011;21128;50.016;20.002;2023-09-19T04:49:08;21.20;;;16.20;;
34920;SDS011;21128;50.016;20.002;2023-09-19T04:51:36;24.60;;;16.20;;
34920;SDS011;21128;50.016;20.002;2023-09-19T04:54:02;22.40;;;16.30;;
34920;SDS011;21128;50.016;20.002;2023-09-19T04:56:30;22.60;;;16.10;;
34920;SDS011;21128;50.016;20.002;2023-09-19T04:58:58;18.10;;;14.70;;
34920;SDS011;21128;50.016;20.002;2023-09-19T05:01:25;23.10;;;16.40;;
34920;SDS011;21128;50.016;20.002;2023-09-19T05:03:53;19.30;;;15.40;;
34920;SDS011;21128;50.016;20.002;2023-09-19T05:06:20;23.70;;;15.80;;
34920;SDS011;21128;50.016;20.002;2023-09-19T05:08:48;23.00;;;15.70;;
34920;SDS011;21128;50.016;20.002;2023-09-19T05:11:18;19.00;;;15.60;;
34920;SDS011;21128;50.016;20.002;2023-09-19T05:13:45;22.70;;;15.70;;
34920;SDS011;21128;50.016;20.002;2023-09-19T05:16:12;23.80;;;17.50;;
34920;SDS011;21128;50.016;20.002;2023-09-19T05:18:39;23.50;;;17.90;;
34920;SDS011;21128;50.016;20.002;2023-09-19T05:21:06;24.80;;;16.50;;
34920;SDS011;21128;50.016;20.002;2023-09-19T05:23:34;25.30;;;18.10;;
34920;SDS011;21128;50.016;20.002;2023-09-19T05:26:01;24.90;;;17.50;;
34920;SDS011;21128;50.016;20.002;2023-09-19T05:28:28;23.40;;;17.40;;
34920;SDS011;21128;50.016;20.002;2023-09-19T05:30:56;26.70;;;21.30;;
34920;SDS011;21128;50.016;20.002;2023-09-19T05:33:25;32.50;;;23.80;;
34920;SDS011;21128;50.016;20.002;2023-09-19T05:35:53;29.50;;;22.60;;
34920;SDS011;21128;50.016;20.002;2023-09-19T05:38:20;36.80;;;24.20;;
34920;SDS011;21128;50.016;20.002;2023-09-19T05:40:47;31.90;;;24.40;;
34920;SDS011;21128;50.016;20.002;2023-09-19T05:43:14;34.20;;;22.60;;
34920;SDS011;21128;50.016;20.002;2023-09-19T05:45:41;33.00;;;23.40;;
34920;SDS011;21128;50.016;20.002;2023-09-19T05:48:08;34.00;;;23.10;;
34920;SDS011;21128;50.016;20.002;2023-09-19T05:50:38;30.10;;;22.00;;
34920;SDS011;21128;50.016;20.002;2023-09-19T05:53:05;32.30;;;21.90;;
34920;SDS011;21128;50.016;20.002;2023-09-19T05:55:32;30.70;;;22.50;;
34920;SDS011;21128;50.016;20.002;2023-09-19T05:57:59;35.40;;;23.50;;
34920;SDS011;21128;50.016;20.002;2023-09-19T06:00:26;30.70;;;22.90;;
34920;SDS011;21128;50.016;20.002;2023-09-19T06:02:56;32.90;;;22.90;;
34920;SDS011;21128;50.016;20.002;2023-09-19T06:05:25;31.10;;;20.50;;
34920;SDS011;21128;50.016;20.002;2023-09-19T06:07:53;28.70;;;20.60;;
34920;SDS011;21128;50.016;20.002;2023-09-19T06:10:20;31.50;;;21.30;;
34920;SDS011;21128;50.016;20.002;2023-09-19T06:12:49;33.20;;;20.60;;
34920;SDS011;21128;50.016;20.002;2023-09-19T06:15:16;28.70;;;19.40;;
34920;SDS011;21128;50.016;20.002;2023-09-19T06:17:49;29.90;;;20.00;;
34920;SDS011;21128;50.016;20.002;2023-09-19T06:20:16;25.10;;;18.60;;
34920;SDS011;21128;50.016;20.002;2023-09-19T06:22:44;27.20;;;18.80;;
34920;SDS011;21128;50.016;20.002;2023-09-19T06:25:12;30.20;;;19.10;;
34920;SDS011;21128;50.016;20.002;2023-09-19T06:27:46;31.50;;;18.80;;
34920;SDS011;21128;50.016;20.002;2023-09-19T06:30:14;23.20;;;17.00;;
34920;SDS011;21128;50.016;20.002;2023-09-19T06:32:41;21.60;;;17.10;;
34920;SDS011;21128;50.016;20.002;2023-09-19T06:35:12;24.20;;;16.60;;
34920;SDS011;21128;50.016;20.002;2023-09-19T06:37:40;25.00;;;16.20;;
34920;SDS011;21128;50.016;20.002;2023-09-19T06:40:08;22.90;;;16.50;;
34920;SDS011;21128;50.016;20.002;2023-09-19T06:42:41;20.80;;;15.80;;
34920;SDS011;21128;50.016;20.002;2023-09-19T06:45:08;22.80;;;16.40;;
34920;SDS011;21128;50.016;20.002;2023-09-19T06:47:38;22.00;;;16.60;;
34920;SDS011;21128;50.016;20.002;2023-09-19T06:50:05;21.50;;;16.70;;
34920;SDS011;21128;50.016;20.002;2023-09-19T06:52:35;23.50;;;17.30;;
34920;SDS011;21128;50.016;20.002;2023-09-19T06:55:02;21.80;;;17.10;;
34920;SDS011;21128;50.016;20.002;2023-09-19T06:57:29;23.50;;;15.90;;
34920;SDS011;21128;50.016;20.002;2023-09-19T06:59:57;21.20;;;16.20;;
34920;SDS011;21128;50.016;20.002;2023-09-19T07:02:23;25.40;;;16.30;;
34920;SDS011;21128;50.016;20.002;2023-09-19T07:04:50;20.80;;;15.80;;
34920;SDS011;21128;50.016;20.002;2023-09-19T07:07:17;19.80;;;16.20;;
34920;SDS011;21128;50.016;20.002;2023-09-19T07:09:44;20.80;;;16.90;;
34920;SDS011;21128;50.016;20.002;2023-09-19T07:12:11;23.50;;;15.90;;
34920;SDS011;21128;50.016;20.002;2023-09-19T07:14:38;21.70;;;16.80;;
34920;SDS011;21128;50.016;20.002;2023-09-19T07:17:05;23.20;;;16.40;;
34920;SDS011;21128;50.016;20.002;2023-09-19T07:19:31;25.20;;;16.80;;
34920;SDS011;21128;50.016;20.002;2023-09-19T07:21:58;26.50;;;16.90;;
34920;SDS011;21128;50.016;20.002;2023-09-19T07:24:29;21.30;;;17.00;;
34920;SDS011;21128;50.016;20.002;2023-09-19T07:26:55;21.60;;;16.30;;
34920;SDS011;21128;50.016;20.002;2023-09-19T07:29:23;24.50;;;16.60;;
34920;SDS011;21128;50.016;20.002;2023-09-19T07:31:49;22.40;;;15.30;;
34920;SDS011;21128;50.016;20.002;2023-09-19T07:34:16;20.30;;;16.20;;
34920;SDS011;21128;50.016;20.002;2023-09-19T07:36:43;18.90;;;15.20;;
34920;SDS011;21128;50.016;20.002;2023-09-19T07:39:10;23.80;;;15.10;;
34920;SDS011;21128;50.016;20.002;2023-09-19T07:41:37;24.90;;;15.90;;
34920;SDS011;21128;50.016;20.002;2023-09-19T07:44:04;20.30;;;16.60;;
34920;SDS011;21128;50.016;20.002;2023-09-19T07:46:31;23.90;;;17.10;;
34920;SDS011;21128;50.016;20.002;2023-09-19T07:48:57;17.90;;;15.90;;
34920;SDS011;21128;50.016;20.002;2023-09-19T07:51:24;20.10;;;15.80;;
34920;SDS011;21128;50.016;20.002;2023-09-19T07:53:51;21.40;;;16.70;;
34920;SDS011;21128;50.016;20.002;2023-09-19T07:56:19;23.80;;;16.80;;
34920;SDS011;21128;50.016;20.002;2023-09-19T07:58:47;19.80;;;15.50;;
34920;SDS011;21128;50.016;20.002;2023-09-19T08:01:14;18.50;;;14.60;;
34920;SDS011;21128;50.016;20.002;2023-09-19T08:03:42;18.70;;;14.10;;
34920;SDS011;21128;50.016;20.002;2023-09-19T08:06:10;19.40;;;12.90;;
34920;SDS011;21128;50.016;20.002;2023-09-19T08:08:37;18.60;;;12.20;;
34920;SDS011;21128;50.016;20.002;2023-09-19T08:11:04;14.00;;;10.40;;
34920;SDS011;21128;50.016;20.002;2023-09-19T08:13:39;11.50;;;9.40;;
34920;SDS011;21128;50.016;20.002;2023-09-19T08:16:15;14.90;;;9.50;;
34920;SDS011;21128;50.016;20.002;2023-09-19T08:18:46;8.90;;;7.60;;
34920;SDS011;21128;50.016;20.002;2023-09-19T08:21:14;12.20;;;7.60;;
34920;SDS011;21128;50.016;20.002;2023-09-19T08:23:42;9.80;;;6.80;;
34920;SDS011;21128;50.016;20.002;2023-09-19T08:26:09;8.00;;;6.50;;
34920;SDS011;21128;50.016;20.002;2023-09-19T08:28:36;7.20;;;5.60;;
34920;SDS011;21128;50.016;20.002;2023-09-19T08:31:07;6.20;;;5.60;;
34920;SDS011;21128;50.016;20.002;2023-09-19T08:33:35;7.20;;;5.50;;
34920;SDS011;21128;50.016;20.002;2023-09-19T08:36:03;5.60;;;4.90;;
34920;SDS011;21128;50.016;20.002;2023-09-19T08:38:33;5.90;;;4.90;;
34920;SDS011;21128;50.016;20.002;2023-09-19T08:41:07;10.60;;;5.90;;
34920;SDS011;21128;50.016;20.002;2023-09-19T08:43:35;10.00;;;6.20;;
34920;SDS011;21128;50.016;20.002;2023-09-19T08:48:32;7.10;;;5.70;;
34920;SDS011;21128;50.016;20.002;2023-09-19T08:51:07;8.70;;;5.30;;
34920;SDS011;21128;50.016;20.002;2023-09-19T08:53:50;8.20;;;5.90;;
34920;SDS011;21128;50.016;20.002;2023-09-19T08:56:21;8.20;;;6.00;;
34920;SDS011;21128;50.016;20.002;2023-09-19T09:01:29;5.30;;;4.80;;
34920;SDS011;21128;50.016;20.002;2023-09-19T09:03:58;5.20;;;4.60;;
34920;SDS011;21128;50.016;20.002;2023-09-19T09:06:27;5.60;;;4.50;;
34920;SDS011;21128;50.016;20.002;2023-09-19T09:08:55;8.10;;;4.30;;
34920;SDS011;21128;50.016;20.002;2023-09-19T09:11:23;5.50;;;4.10;;
34920;SDS011;21128;50.016;20.002;2023-09-19T09:13:51;7.10;;;4.50;;
34920;SDS011;21128;50.016;20.002;2023-09-19T09:16:18;6.60;;;4.50;;
34920;SDS011;21128;50.016;20.002;2023-09-19T09:18:45;6.90;;;4.70;;
34920;SDS011;21128;50.016;20.002;2023-09-19T09:21:19;8.30;;;4.90;;
34920;SDS011;21128;50.016;20.002;2023-09-19T09:23:48;8.70;;;5.10;;
34920;SDS011;21128;50.016;20.002;2023-09-19T09:29:05;5.80;;;4.70;;
34920;SDS011;21128;50.016;20.002;2023-09-19T09:31:32;7.80;;;5.10;;
34920;SDS011;21128;50.016;20.002;2023-09-19T09:33:59;8.00;;;5.00;;
34920;SDS011;21128;50.016;20.002;2023-09-19T09:36:39;5.40;;;4.90;;
34920;SDS011;21128;50.016;20.002;2023-09-19T09:39:10;7.50;;;4.90;;
34920;SDS011;21128;50.016;20.002;2023-09-19T09:41:45;6.10;;;5.50;;
34920;SDS011;21128;50.016;20.002;2023-09-19T09:44:13;8.40;;;5.60;;
34920;SDS011;21128;50.016;20.002;2023-09-19T09:46:42;7.40;;;4.70;;
34920;SDS011;21128;50.016;20.002;2023-09-19T09:49:22;7.30;;;4.90;;
34920;SDS011;21128;50.016;20.002;2023-09-19T09:52:02;11.30;;;5.30;;
34920;SDS011;21128;50.016;20.002;2023-09-19T09:54:36;7.40;;;5.10;;
34920;SDS011;21128;50.016;20.002;2023-09-19T09:57:05;6.20;;;5.20;;
34920;SDS011;21128;50.016;20.002;2023-09-19T09:59:50;12.80;;;5.60;;
34920;SDS011;21128;50.016;20.002;2023-09-19T10:02:28;8.00;;;5.10;;
34920;SDS011;21128;50.016;20.002;2023-09-19T10:04:59;7.40;;;5.80;;
34920;SDS011;21128;50.016;20.002;2023-09-19T10:07:41;9.40;;;5.60;;
34920;SDS011;21128;50.016;20.002;2023-09-19T10:10:28;6.30;;;5.40;;
34920;SDS011;21128;50.016;20.002;2023-09-19T10:13:05;10.70;;;5.70;;
34920;SDS011;21128;50.016;20.002;2023-09-19T10:15:34;7.40;;;5.10;;
34920;SDS011;21128;50.016;20.002;2023-09-19T10:18:06;8.30;;;5.10;;
34920;SDS011;21128;50.016;20.002;2023-09-19T10:20:37;6.90;;;5.30;;
34920;SDS011;21128;50.016;20.002;2023-09-19T10:23:07;10.70;;;4.90;;
34920;SDS011;21128;50.016;20.002;2023-09-19T10:25:43;8.10;;;4.80;;
34920;SDS011;21128;50.016;20.002;2023-09-19T10:28:14;7.00;;;5.00;;
34920;SDS011;21128;50.016;20.002;2023-09-19T10:30:43;7.00;;;5.00;;
34920;SDS011;21128;50.016;20.002;2023-09-19T10:33:14;6.80;;;4.80;;
34920;SDS011;21128;50.016;20.002;2023-09-19T10:35:43;8.10;;;5.60;;
34920;SDS011;21128;50.016;20.002;2023-09-19T10:38:13;9.70;;;5.10;;
34920;SDS011;21128;50.016;20.002;2023-09-19T10:40:48;10.20;;;4.50;;
34920;SDS011;21128;50.016;20.002;2023-09-19T10:43:17;8.20;;;5.40;;
34920;SDS011;21128;50.016;20.002;2023-09-19T10:45:45;7.80;;;4.70;;
34920;SDS011;21128;50.016;20.002;2023-09-19T10:48:16;5.00;;;4.20;;
34920;SDS011;21128;50.016;20.002;2023-09-19T10:50:48;6.90;;;4.40;;
34920;SDS011;21128;50.016;20.002;2023-09-19T10:53:26;9.60;;;5.00;;
34920;SDS011;21128;50.016;20.002;2023-09-19T10:55:59;10.30;;;5.00;;
34920;SDS011;21128;50.016;20.002;2023-09-19T10:58:30;7.40;;;4.90;;
34920;SDS011;21128;50.016;20.002;2023-09-19T11:01:03;6.40;;;4.50;;
34920;SDS011;21128;50.016;20.002;2023-09-19T11:03:38;12.00;;;4.60;;
34920;SDS011;21128;50.016;20.002;2023-09-19T11:06:12;9.70;;;5.30;;
34920;SDS011;21128;50.016;20.002;2023-09-19T11:08:56;14.90;;;5.00;;
34920;SDS011;21128;50.016;20.002;2023-09-19T11:11:46;12.20;;;4.80;;
34920;SDS011;21128;50.016;20.002;2023-09-19T11:30:36;7.20;;;5.10;;
34920;SDS011;21128;50.016;20.002;2023-09-19T11:33:23;9.30;;;5.40;;
34920;SDS011;21128;50.016;20.002;2023-09-19T11:36:01;7.50;;;5.20;;
34920;SDS011;21128;50.016;20.002;2023-09-19T11:39:14;7.90;;;4.60;;
34920;SDS011;21128;50.016;20.002;2023-09-19T11:43:53;6.10;;;4.30;;
34920;SDS011;21128;50.016;20.002;2023-09-19T11:46:27;7.20;;;4.70;;
34920;SDS011;21128;50.016;20.002;2023-09-19T11:48:54;6.60;;;4.20;;
34920;SDS011;21128;50.016;20.002;2023-09-19T11:51:23;6.70;;;4.50;;
34920;SDS011;21128;50.016;20.002;2023-09-19T11:53:55;7.90;;;4.50;;
34920;SDS011;21128;50.016;20.002;2023-09-19T11:56:26;5.60;;;4.50;;
34920;SDS011;21128;50.016;20.002;2023-09-19T11:58:55;9.10;;;5.20;;
34920;SDS011;21128;50.016;20.002;2023-09-19T12:01:28;12.30;;;5.50;;
34920;SDS011;21128;50.016;20.002;2023-09-19T12:03:58;9.30;;;4.80;;
34920;SDS011;21128;50.016;20.002;2023-09-19T12:06:27;7.60;;;5.10;;
34920;SDS011;21128;50.016;20.002;2023-09-19T12:09:13;10.80;;;4.90;;
34920;SDS011;21128;50.016;20.002;2023-09-19T12:11:43;9.20;;;5.00;;
34920;SDS011;21128;50.016;20.002;2023-09-19T12:14:21;8.60;;;5.10;;
34920;SDS011;21128;50.016;20.002;2023-09-19T12:16:56;8.90;;;4.90;;
34920;SDS011;21128;50.016;20.002;2023-09-19T12:19:27;9.60;;;5.40;;
34920;SDS011;21128;50.016;20.002;2023-09-19T12:21:56;10.10;;;5.40;;
34920;SDS011;21128;50.016;20.002;2023-09-19T12:24:25;12.30;;;5.20;;
34920;SDS011;21128;50.016;20.002;2023-09-19T12:27:05;11.70;;;5.40;;
34920;SDS011;21128;50.016;20.002;2023-09-19T12:29:43;8.90;;;5.00;;
34920;SDS011;21128;50.016;20.002;2023-09-19T12:32:17;7.60;;;4.30;;
34920;SDS011;21128;50.016;20.002;2023-09-19T12:34:51;9.30;;;4.80;;
34920;SDS011;21128;50.016;20.002;2023-09-19T12:37:19;7.60;;;4.80;;
34920;SDS011;21128;50.016;20.002;2023-09-19T12:39:54;8.60;;;5.50;;
34920;SDS011;21128;50.016;20.002;2023-09-19T12:42:41;12.30;;;6.00;;
34920;SDS011;21128;50.016;20.002;2023-09-19T12:45:09;7.60;;;5.50;;
34920;SDS011;21128;50.016;20.002;2023-09-19T12:47:36;10.20;;;5.90;;
34920;SDS011;21128;50.016;20.002;2023-09-19T12:52:48;8.50;;;5.60;;
34920;SDS011;21128;50.016;20.002;2023-09-19T13:00:45;11.50;;;6.20;;
34920;SDS011;21128;50.016;20.002;2023-09-19T13:05:56;10.10;;;5.60;;
34920;SDS011;21128;50.016;20.002;2023-09-19T13:08:30;11.40;;;6.30;;
34920;SDS011;21128;50.016;20.002;2023-09-19T13:13:33;8.40;;;5.20;;
34920;SDS011;21128;50.016;20.002;2023-09-19T13:16:02;6.90;;;5.60;;
34920;SDS011;21128;50.016;20.002;2023-09-19T13:18:41;8.00;;;5.30;;
34920;SDS011;21128;50.016;20.002;2023-09-19T13:21:30;9.20;;;5.00;;
34920;SDS011;21128;50.016;20.002;2023-09-19T13:24:20;8.60;;;5.20;;
34920;SDS011;21128;50.016;20.002;2023-09-19T13:26:54;9.70;;;5.70;;
34920;SDS011;21128;50.016;20.002;2023-09-19T13:29:22;9.70;;;5.70;;
34920;SDS011;21128;50.016;20.002;2023-09-19T13:31:52;11.90;;;5.80;;
34920;SDS011;21128;50.016;20.002;2023-09-19T13:34:19;8.40;;;5.50;;
34920;SDS011;21128;50.016;20.002;2023-09-19T13:36:47;10.20;;;6.10;;
34920;SDS011;21128;50.016;20.002;2023-09-19T13:39:17;9.30;;;5.80;;
34920;SDS011;21128;50.016;20.002;2023-09-19T13:41:44;10.70;;;5.70;;
34920;SDS011;21128;50.016;20.002;2023-09-19T13:44:13;11.90;;;6.00;;
34920;SDS011;21128;50.016;20.002;2023-09-19T13:46:40;7.40;;;5.20;;
34920;SDS011;21128;50.016;20.002;2023-09-19T13:49:12;8.90;;;5.50;;
34920;SDS011;21128;50.016;20.002;2023-09-19T13:51:38;7.90;;;5.50;;
34920;SDS011;21128;50.016;20.002;2023-09-19T13:54:10;7.70;;;4.80;;
34920;SDS011;21128;50.016;20.002;2023-09-19T13:56:38;8.20;;;5.60;;
34920;SDS011;21128;50.016;20.002;2023-09-19T13:59:05;9.20;;;5.30;;
34920;SDS011;21128;50.016;20.002;2023-09-19T14:01:33;8.40;;;5.70;;
34920;SDS011;21128;50.016;20.002;2023-09-19T14:04:00;8.80;;;5.80;;
34920;SDS011;21128;50.016;20.002;2023-09-19T14:06:27;14.10;;;6.00;;
34920;SDS011;21128;50.016;20.002;2023-09-19T14:08:53;6.80;;;5.20;;
34920;SDS011;21128;50.016;20.002;2023-09-19T14:11:20;8.80;;;5.30;;
34920;SDS011;21128;50.016;20.002;2023-09-19T14:13:47;7.50;;;5.20;;
34920;SDS011;21128;50.016;20.002;2023-09-19T14:16:16;11.50;;;5.60;;
34920;SDS011;21128;50.016;20.002;2023-09-19T14:18:45;7.50;;;5.10;;
34920;SDS011;21128;50.016;20.002;2023-09-19T14:21:12;8.10;;;5.50;;
34920;SDS011;21128;50.016;20.002;2023-09-19T14:23:41;6.80;;;5.50;;
34920;SDS011;21128;50.016;20.002;2023-09-19T14:26:09;7.20;;;4.60;;
34920;SDS011;21128;50.016;20.002;2023-09-19T14:28:36;10.70;;;5.30;;
34920;SDS011;21128;50.016;20.002;2023-09-19T14:31:06;7.90;;;5.10;;
34920;SDS011;21128;50.016;20.002;2023-09-19T14:33:34;8.80;;;5.50;;
34920;SDS011;21128;50.016;20.002;2023-09-19T14:36:02;7.60;;;5.30;;
34920;SDS011;21128;50.016;20.002;2023-09-19T14:38:33;12.80;;;5.20;;
34920;SDS011;21128;50.016;20.002;2023-09-19T14:41:02;8.30;;;4.80;;
34920;SDS011;21128;50.016;20.002;2023-09-19T14:43:29;11.00;;;5.80;;
34920;SDS011;21128;50.016;20.002;2023-09-19T14:45:57;8.20;;;5.10;;
34920;SDS011;21128;50.016;20.002;2023-09-19T14:48:24;10.30;;;5.10;;
34920;SDS011;21128;50.016;20.002;2023-09-19T14:50:52;5.80;;;5.10;;
34920;SDS011;21128;50.016;20.002;2023-09-19T14:53:19;9.50;;;5.20;;
34920;SDS011;21128;50.016;20.002;2023-09-19T14:55:46;8.40;;;6.20;;
34920;SDS011;21128;50.016;20.002;2023-09-19T14:58:14;8.60;;;5.40;;
34920;SDS011;21128;50.016;20.002;2023-09-19T15:00:41;9.30;;;5.90;;
34920;SDS011;21128;50.016;20.002;2023-09-19T15:03:08;7.40;;;4.90;;
34920;SDS011;21128;50.016;20.002;2023-09-19T15:05:34;12.50;;;5.70;;
34920;SDS011;21128;50.016;20.002;2023-09-19T15:08:01;10.90;;;5.50;;
34920;SDS011;21128;50.016;20.002;2023-09-19T15:10:29;14.00;;;6.10;;
34920;SDS011;21128;50.016;20.002;2023-09-19T15:12:57;11.10;;;5.80;;
34920;SDS011;21128;50.016;20.002;2023-09-19T15:15:23;11.20;;;5.90;;
34920;SDS011;21128;50.016;20.002;2023-09-19T15:17:50;10.50;;;5.80;;
34920;SDS011;21128;50.016;20.002;2023-09-19T15:20:17;7.20;;;5.30;;
34920;SDS011;21128;50.016;20.002;2023-09-19T15:22:44;6.60;;;5.00;;
34920;SDS011;21128;50.016;20.002;2023-09-19T15:25:12;10.90;;;6.60;;
34920;SDS011;21128;50.016;20.002;2023-09-19T15:27:39;9.50;;;4.80;;
34920;SDS011;21128;50.016;20.002;2023-09-19T15:30:08;8.50;;;5.40;;
34920;SDS011;21128;50.016;20.002;2023-09-19T15:32:35;10.40;;;4.90;;
34920;SDS011;21128;50.016;20.002;2023-09-19T15:35:02;10.80;;;5.20;;
34920;SDS011;21128;50.016;20.002;2023-09-19T15:37:29;5.50;;;5.00;;